Time;durP1;ratioP1;P1;durP2;ratioP2;P2;SDS_P1;SDS_P2;PMS_P1;PMS_P2;Temp;Humidity;BMP_temperature;BMP_pressure;BME280_temperature;BME280_humidity;BME280_pressure;Samples;Min_cycle;Max_cycle;Signal;HPM_P1;HPM_P2
2021/09/05 00:00:03;;;;;;;29.48;9.25;;;;;;;;;;4901834;28;20167;-61
2021/09/05 00:02:32;;;;;;;25.65;9.55;;;;;;;;;;4919934;28;20039;-61
2021/09/05 00:04:58;;;;;;;34.90;11.10;;;;;;;;;;4919293;28;20031;-61
2021/09/05 00:07:25;;;;;;;34.38;10.13;;;;;;;;;;4920072;28;20173;-61
2021/09/05 00:09:51;;;;;;;31.33;10.30;;;;;;;;;;4908020;28;20448;-61
2021/09/05 00:12:18;;;;;;;29.58;10.57;;;;;;;;;;4918027;28;20050;-60
2021/09/05 00:14:44;;;;;;;20.77;8.80;;;;;;;;;;4923317;28;20050;-61
2021/09/05 00:17:12;;;;;;;26.48;8.77;;;;;;;;;;4925799;28;20040;-60
2021/09/05 00:19:38;;;;;;;29.85;10.50;;;;;;;;;;4917905;28;20027;-62
2021/09/05 00:22:08;;;;;;;25.60;7.85;;;;;;;;;;4917586;28;20466;-61
2021/09/05 00:24:36;;;;;;;20.98;8.18;;;;;;;;;;4907062;29;20550;-60
2021/09/05 00:27:01;;;;;;;32.05;8.90;;;;;;;;;;4901298;28;20484;-60
2021/09/05 00:29:27;;;;;;;38.55;9.75;;;;;;;;;;4918625;28;20043;-60
2021/09/05 00:31:55;;;;;;;20.60;8.00;;;;;;;;;;4918240;28;20027;-61
2021/09/05 00:34:22;;;;;;;21.05;7.82;;;;;;;;;;4901847;28;20118;-60
2021/09/05 00:36:53;;;;;;;32.40;8.43;;;;;;;;;;4921501;28;20031;-60
2021/09/05 00:39:25;;;;;;;17.38;6.80;;;;;;;;;;4918520;28;20441;-60
2021/09/05 00:41:53;;;;;;;34.70;7.45;;;;;;;;;;4917516;28;20782;-60
2021/09/05 00:44:18;;;;;;;22.45;7.80;;;;;;;;;;4918927;28;20058;-59
2021/09/05 00:46:44;;;;;;;28.42;7.55;;;;;;;;;;4886867;28;20154;-60
2021/09/05 00:49:13;;;;;;;22.13;7.78;;;;;;;;;;4918531;28;20154;-60
2021/09/05 00:51:42;;;;;;;16.80;6.88;;;;;;;;;;4917566;28;20070;-60
2021/09/05 00:54:14;;;;;;;26.95;7.43;;;;;;;;;;4919825;28;20160;-60
2021/09/05 00:56:43;;;;;;;20.83;7.15;;;;;;;;;;4919256;28;20035;-60
2021/09/05 00:59:28;;;;;;;14.38;7.05;;;;;;;;;;4919032;28;20015;-60
2021/09/05 01:01:56;;;;;;;18.77;7.40;;;;;;;;;;4934633;28;20043;-60
2021/09/05 01:04:24;;;;;;;20.92;7.45;;;;;;;;;;4902948;29;20043;-60
2021/09/05 01:07:10;;;;;;;24.02;7.93;;;;;;;;;;4910216;28;20039;-60
2021/09/05 01:09:38;;;;;;;19.83;7.45;;;;;;;;;;4919534;28;20066;-61
2021/09/05 01:12:21;;;;;;;23.65;7.72;;;;;;;;;;4915341;28;20076;-61
2021/09/05 01:14:51;;;;;;;28.77;8.23;;;;;;;;;;4908432;28;20039;-60
2021/09/05 01:17:19;;;;;;;26.25;8.88;;;;;;;;;;4931791;28;20035;-60
2021/09/05 01:19:47;;;;;;;25.80;8.45;;;;;;;;;;4906446;29;20062;-61
2021/09/05 01:22:33;;;;;;;18.05;8.32;;;;;;;;;;4919641;28;20101;-61
2021/09/05 01:24:58;;;;;;;29.13;9.45;;;;;;;;;;4905785;28;20152;-62
2021/09/05 01:27:26;;;;;;;20.42;8.25;;;;;;;;;;4920794;28;20039;-59
2021/09/05 01:29:52;;;;;;;22.70;8.98;;;;;;;;;;4922834;28;20035;-60
2021/09/05 01:32:18;;;;;;;29.20;9.20;;;;;;;;;;4921539;28;20063;-60
2021/09/05 01:34:48;;;;;;;29.45;8.40;;;;;;;;;;4890926;29;20915;-59
2021/09/05 01:37:14;;;;;;;37.70;8.68;;;;;;;;;;4912407;28;20880;-59
2021/09/05 01:39:40;;;;;;;27.17;8.13;;;;;;;;;;4910177;28;20047;-60
2021/09/05 01:42:08;;;;;;;24.67;8.90;;;;;;;;;;4911549;29;20047;-60
2021/09/05 01:44:33;;;;;;;25.65;8.50;;;;;;;;;;4922094;28;20432;-59
2021/09/05 01:46:59;;;;;;;35.88;9.13;;;;;;;;;;4912260;28;20174;-60
2021/09/05 01:49:29;;;;;;;26.58;9.07;;;;;;;;;;4925251;28;20090;-59
2021/09/05 01:51:55;;;;;;;28.30;9.68;;;;;;;;;;4921953;28;20095;-58
2021/09/05 01:54:25;;;;;;;25.40;9.35;;;;;;;;;;4919583;28;20484;-60
2021/09/05 01:56:50;;;;;;;36.95;10.27;;;;;;;;;;4922657;28;20031;-59
2021/09/05 01:59:23;;;;;;;23.35;9.52;;;;;;;;;;4922531;28;20028;-59
2021/09/05 02:01:51;;;;;;;26.38;9.35;;;;;;;;;;4919544;28;20801;-60
2021/09/05 02:04:16;;;;;;;35.88;10.57;;;;;;;;;;4922026;28;20059;-59
2021/09/05 02:06:46;;;;;;;29.70;11.05;;;;;;;;;;4928770;28;20948;-60
2021/09/05 02:09:14;;;;;;;22.55;8.98;;;;;;;;;;4909433;28;20043;-59
2021/09/05 02:11:42;;;;;;;28.05;10.65;;;;;;;;;;4903534;29;20032;-60
2021/09/05 02:14:09;;;;;;;31.85;10.50;;;;;;;;;;4905783;28;20031;-60
2021/09/05 02:16:40;;;;;;;27.13;10.88;;;;;;;;;;4921055;28;20032;-59
2021/09/05 02:19:06;;;;;;;31.58;10.27;;;;;;;;;;4935944;28;20118;-59
2021/09/05 02:21:34;;;;;;;28.52;11.55;;;;;;;;;;4927791;28;20027;-59
2021/09/05 02:24:02;;;;;;;23.73;9.77;;;;;;;;;;4910616;28;20039;-59
2021/09/05 02:26:30;;;;;;;30.58;9.80;;;;;;;;;;4918821;28;20687;-59
2021/09/05 02:28:56;;;;;;;35.25;10.88;;;;;;;;;;4919375;28;20063;-59
2021/09/05 02:31:24;;;;;;;25.30;10.18;;;;;;;;;;4925332;28;20054;-60
2021/09/05 02:33:52;;;;;;;25.58;9.73;;;;;;;;;;4919593;28;20039;-59
2021/09/05 02:36:19;;;;;;;24.65;10.65;;;;;;;;;;4921912;28;20110;-59
2021/09/05 02:38:49;;;;;;;35.80;10.27;;;;;;;;;;4920364;28;20087;-59
2021/09/05 02:41:15;;;;;;;29.80;10.55;;;;;;;;;;4919791;28;20289;-59
2021/09/05 02:43:40;;;;;;;27.88;10.90;;;;;;;;;;4920275;28;20487;-59
2021/09/05 02:46:11;;;;;;;33.33;11.77;;;;;;;;;;4915924;28;20087;-59
2021/09/05 02:48:46;;;;;;;30.73;11.38;;;;;;;;;;4918876;28;20039;-59
2021/09/05 02:51:12;;;;;;;30.23;10.45;;;;;;;;;;4921561;28;21029;-59
2021/09/05 02:53:42;;;;;;;30.73;11.60;;;;;;;;;;4903964;28;20426;-59
2021/09/05 02:56:10;;;;;;;31.23;12.27;;;;;;;;;;4924706;28;20395;-60
2021/09/05 02:58:39;;;;;;;43.17;13.35;;;;;;;;;;4919302;28;20097;-59
2021/09/05 03:01:05;;;;;;;39.65;12.15;;;;;;;;;;4918196;28;20130;-59
2021/09/05 03:03:30;;;;;;;31.40;11.10;;;;;;;;;;4927156;28;20038;-59
2021/09/05 03:05:59;;;;;;;37.47;12.23;;;;;;;;;;4920997;28;20031;-60
2021/09/05 03:08:24;;;;;;;37.05;12.60;;;;;;;;;;4920436;28;20039;-59
2021/09/05 03:10:52;;;;;;;34.85;11.93;;;;;;;;;;4921753;28;20039;-59
2021/09/05 03:13:17;;;;;;;31.90;12.93;;;;;;;;;;4917359;28;20036;-59
2021/09/05 03:15:43;;;;;;;39.58;12.90;;;;;;;;;;4920809;28;22090;-59
2021/09/05 03:18:09;;;;;;;38.83;13.48;;;;;;;;;;4919345;28;20054;-60
2021/09/05 03:20:34;;;;;;;36.45;12.98;;;;;;;;;;4919547;28;21950;-60
2021/09/05 03:23:00;;;;;;;40.15;13.23;;;;;;;;;;4919816;28;20031;-60
2021/09/05 03:25:28;;;;;;;43.78;14.05;;;;;;;;;;4921459;28;20054;-59
2021/09/05 03:27:54;;;;;;;38.63;13.35;;;;;;;;;;4920724;28;20045;-59
2021/09/05 03:30:20;;;;;;;40.03;12.70;;;;;;;;;;4910072;28;20039;-59
2021/09/05 03:32:50;;;;;;;38.17;13.00;;;;;;;;;;4934624;28;20059;-59
2021/09/05 03:35:15;;;;;;;37.13;13.45;;;;;;;;;;4903111;28;20420;-63
2021/09/05 03:37:46;;;;;;;34.15;12.55;;;;;;;;;;4917594;28;20043;-59
2021/09/05 03:40:12;;;;;;;41.38;14.13;;;;;;;;;;4920289;28;20023;-59
2021/09/05 03:42:37;;;;;;;41.72;13.18;;;;;;;;;;4916404;28;20042;-59
2021/09/05 03:45:03;;;;;;;39.25;14.02;;;;;;;;;;4917596;28;20043;-59
2021/09/05 03:47:33;;;;;;;44.45;15.15;;;;;;;;;;4887064;29;20047;-59
2021/09/05 03:49:59;;;;;;;43.40;15.50;;;;;;;;;;4917993;28;20035;-58
2021/09/05 03:52:29;;;;;;;44.28;15.02;;;;;;;;;;4924601;28;20063;-58
2021/09/05 03:54:55;;;;;;;44.70;14.15;;;;;;;;;;4920428;28;20042;-58
2021/09/05 03:57:25;;;;;;;35.65;12.85;;;;;;;;;;4915812;28;20055;-58
2021/09/05 03:59:53;;;;;;;39.45;13.68;;;;;;;;;;4902565;28;20547;-60
2021/09/05 04:02:21;;;;;;;40.85;14.55;;;;;;;;;;4933203;28;20027;-58
2021/09/05 04:04:49;;;;;;;39.17;15.18;;;;;;;;;;4919552;28;20039;-58
2021/09/05 04:07:18;;;;;;;46.70;15.75;;;;;;;;;;4903196;28;20046;-58
2021/09/05 04:12:32;;;;;;;50.40;15.80;;;;;;;;;;4918731;28;20047;-59
2021/09/05 04:15:05;;;;;;;46.92;15.43;;;;;;;;;;4925015;28;20024;-58
2021/09/05 04:17:32;;;;;;;41.53;15.73;;;;;;;;;;4919322;28;20028;-58
2021/09/05 04:19:58;;;;;;;38.80;14.63;;;;;;;;;;4918081;28;20031;-59
2021/09/05 04:22:28;;;;;;;34.70;14.50;;;;;;;;;;4917017;28;20043;-59
2021/09/05 04:24:54;;;;;;;41.85;15.30;;;;;;;;;;4918131;28;20303;-59
2021/09/05 04:27:24;;;;;;;37.72;14.35;;;;;;;;;;4918481;28;20031;-59
2021/09/05 04:29:50;;;;;;;41.70;15.90;;;;;;;;;;4918578;28;20050;-58
2021/09/05 04:32:20;;;;;;;44.97;16.58;;;;;;;;;;4916963;28;20023;-58
2021/09/05 04:34:46;;;;;;;49.65;15.68;;;;;;;;;;4917861;28;20039;-58
2021/09/05 04:37:14;;;;;;;41.38;15.32;;;;;;;;;;4932503;28;20039;-59
2021/09/05 04:39:45;;;;;;;38.15;15.10;;;;;;;;;;4919790;28;20027;-58
2021/09/05 04:42:10;;;;;;;42.08;14.88;;;;;;;;;;4918965;28;20047;-58
2021/09/05 04:44:36;;;;;;;47.28;14.70;;;;;;;;;;4905903;29;20035;-58
2021/09/05 04:47:02;;;;;;;41.00;15.63;;;;;;;;;;4922217;28;20984;-58
2021/09/05 04:49:33;;;;;;;39.17;16.60;;;;;;;;;;4919661;28;20063;-59
2021/09/05 04:51:58;;;;;;;41.28;15.07;;;;;;;;;;4919667;28;20039;-58
2021/09/05 04:54:26;;;;;;;38.80;15.27;;;;;;;;;;4921565;28;20112;-58
2021/09/05 04:56:54;;;;;;;46.17;15.77;;;;;;;;;;4915103;29;20652;-58
2021/09/05 04:59:25;;;;;;;36.80;15.02;;;;;;;;;;4931651;28;20036;-58
2021/09/05 05:01:50;;;;;;;44.22;16.40;;;;;;;;;;4923557;28;20711;-58
2021/09/05 05:04:21;;;;;;;37.33;14.77;;;;;;;;;;4929663;28;20045;-58
2021/09/05 05:06:49;;;;;;;44.05;16.05;;;;;;;;;;4914547;28;20035;-58
2021/09/05 05:09:16;;;;;;;40.65;16.05;;;;;;;;;;4924246;28;20078;-58
2021/09/05 05:11:44;;;;;;;41.83;15.52;;;;;;;;;;4923288;28;20039;-58
2021/09/05 05:14:14;;;;;;;40.55;15.88;;;;;;;;;;4921543;28;20114;-58
2021/09/05 05:16:42;;;;;;;47.80;16.13;;;;;;;;;;4938747;28;20083;-58
2021/09/05 05:19:07;;;;;;;40.72;15.77;;;;;;;;;;4924701;28;20165;-58
2021/09/05 05:21:35;;;;;;;43.38;15.02;;;;;;;;;;4937307;28;20134;-58
2021/09/05 05:24:03;;;;;;;41.03;15.40;;;;;;;;;;4928599;28;20031;-58
2021/09/05 05:26:29;;;;;;;36.13;14.82;;;;;;;;;;4929751;28;20050;-58
2021/09/05 05:28:57;;;;;;;37.25;14.32;;;;;;;;;;4923529;28;20035;-57
2021/09/05 05:31:23;;;;;;;32.72;14.18;;;;;;;;;;4924258;28;20637;-60
2021/09/05 05:33:53;;;;;;;43.20;15.02;;;;;;;;;;4924646;28;20027;-58
2021/09/05 05:36:19;;;;;;;34.67;13.93;;;;;;;;;;4924146;28;20046;-57
2021/09/05 05:38:44;;;;;;;30.60;13.23;;;;;;;;;;4905138;28;20035;-57
2021/09/05 05:41:09;;;;;;;27.52;12.55;;;;;;;;;;4921954;28;20084;-57
2021/09/05 05:43:35;;;;;;;31.30;12.80;;;;;;;;;;4913757;28;20038;-57
2021/09/05 05:46:03;;;;;;;33.13;12.48;;;;;;;;;;4937467;28;20075;-57
2021/09/05 05:48:36;;;;;;;30.65;12.50;;;;;;;;;;4929300;28;20791;-57
2021/09/05 05:51:02;;;;;;;24.85;12.10;;;;;;;;;;4930537;28;20038;-58
2021/09/05 05:53:30;;;;;;;29.10;12.93;;;;;;;;;;4923238;28;20506;-57
2021/09/05 05:55:55;;;;;;;27.45;11.60;;;;;;;;;;4925196;28;20038;-57
2021/09/05 05:58:23;;;;;;;27.77;12.40;;;;;;;;;;4921330;28;20474;-57
2021/09/05 06:00:51;;;;;;;27.85;12.10;;;;;;;;;;4922820;28;20134;-58
2021/09/05 06:03:21;;;;;;;25.75;11.68;;;;;;;;;;4899187;29;20027;-57
2021/09/05 06:05:49;;;;;;;29.08;12.90;;;;;;;;;;4920227;28;20055;-58
2021/09/05 06:08:16;;;;;;;34.20;12.82;;;;;;;;;;4920693;28;20632;-60
2021/09/05 06:10:47;;;;;;;27.83;12.35;;;;;;;;;;4918446;28;20929;-58
2021/09/05 06:13:15;;;;;;;31.30;12.85;;;;;;;;;;4919040;28;20123;-58
2021/09/05 06:15:43;;;;;;;27.33;11.05;;;;;;;;;;4919252;28;20055;-58
2021/09/05 06:18:10;;;;;;;23.55;11.38;;;;;;;;;;4908546;28;20040;-58
2021/09/05 06:20:39;;;;;;;28.75;11.35;;;;;;;;;;4919555;28;20035;-58
2021/09/05 06:23:06;;;;;;;29.17;11.63;;;;;;;;;;4903036;28;20047;-58
2021/09/05 06:25:34;;;;;;;29.30;12.23;;;;;;;;;;4920647;28;20040;-58
2021/09/05 06:28:02;;;;;;;24.50;11.80;;;;;;;;;;4918910;28;20040;-58
2021/09/05 06:30:31;;;;;;;27.75;12.35;;;;;;;;;;4920120;28;20099;-58
2021/09/05 06:32:58;;;;;;;31.92;12.85;;;;;;;;;;4920960;28;20054;-59
2021/09/05 06:35:26;;;;;;;30.42;12.40;;;;;;;;;;4904964;28;20019;-59
2021/09/05 06:37:55;;;;;;;35.67;13.00;;;;;;;;;;4919094;28;20046;-57
2021/09/05 06:40:25;;;;;;;29.85;11.88;;;;;;;;;;4920384;28;20027;-58
2021/09/05 06:42:55;;;;;;;34.17;12.32;;;;;;;;;;4920577;28;20210;-58
2021/09/05 06:45:26;;;;;;;30.45;11.65;;;;;;;;;;4922408;28;20186;-58
2021/09/05 06:47:54;;;;;;;27.05;12.18;;;;;;;;;;4918911;28;20459;-58
2021/09/05 06:50:20;;;;;;;45.22;12.27;;;;;;;;;;4919402;28;20083;-58
2021/09/05 06:52:45;;;;;;;41.58;12.25;;;;;;;;;;4919605;28;20039;-58
2021/09/05 06:55:16;;;;;;;27.63;11.95;;;;;;;;;;4920642;28;20027;-58
2021/09/05 06:57:41;;;;;;;38.30;11.90;;;;;;;;;;4893980;28;20063;-59
2021/09/05 07:00:07;;;;;;;23.02;10.95;;;;;;;;;;4920252;28;20166;-58
2021/09/05 07:02:33;;;;;;;30.50;10.98;;;;;;;;;;4919503;28;20055;-58
2021/09/05 07:05:01;;;;;;;28.70;10.85;;;;;;;;;;4919974;28;20067;-59
2021/09/05 07:07:26;;;;;;;42.22;11.13;;;;;;;;;;4920860;28;20054;-58
2021/09/05 07:09:54;;;;;;;36.10;10.55;;;;;;;;;;4921171;28;20031;-58
2021/09/05 07:12:20;;;;;;;34.38;11.40;;;;;;;;;;4906614;28;20047;-58
2021/09/05 07:14:50;;;;;;;25.85;11.10;;;;;;;;;;4919268;28;20028;-58
2021/09/05 07:17:18;;;;;;;27.75;10.48;;;;;;;;;;4918094;28;20039;-58
2021/09/05 07:19:43;;;;;;;19.20;10.63;;;;;;;;;;4906554;28;20612;-58
2021/09/05 07:22:14;;;;;;;29.00;11.57;;;;;;;;;;4919114;28;20047;-59
2021/09/05 07:24:39;;;;;;;27.17;11.23;;;;;;;;;;4903272;28;20089;-59
2021/09/05 07:27:12;;;;;;;23.83;9.88;;;;;;;;;;4920206;28;20035;-58
2021/09/05 07:29:37;;;;;;;26.40;11.93;;;;;;;;;;4923717;28;20035;-59
2021/09/05 07:32:03;;;;;;;23.13;11.30;;;;;;;;;;4934022;28;20050;-59
2021/09/05 07:34:28;;;;;;;23.63;11.00;;;;;;;;;;4936104;28;20046;-59
2021/09/05 07:36:59;;;;;;;24.92;12.38;;;;;;;;;;4925171;28;20029;-59
2021/09/05 07:39:27;;;;;;;23.55;12.38;;;;;;;;;;4935393;28;20047;-59
2021/09/05 07:41:58;;;;;;;26.17;11.48;;;;;;;;;;4918936;29;20137;-59
2021/09/05 07:44:24;;;;;;;21.63;10.60;;;;;;;;;;4920355;28;20934;-58
2021/09/05 07:46:52;;;;;;;20.90;10.48;;;;;;;;;;4933902;28;20172;-59
2021/09/05 07:49:22;;;;;;;19.45;10.55;;;;;;;;;;4918935;28;20063;-58
2021/09/05 07:51:47;;;;;;;24.60;11.02;;;;;;;;;;4931707;28;20109;-59
2021/09/05 07:54:15;;;;;;;19.00;9.98;;;;;;;;;;4907692;29;20110;-58
2021/09/05 07:56:45;;;;;;;19.05;9.48;;;;;;;;;;4923401;28;20118;-60
2021/09/05 07:59:13;;;;;;;23.73;9.80;;;;;;;;;;4920426;28;20684;-59
2021/09/05 08:01:40;;;;;;;20.10;10.15;;;;;;;;;;4918181;28;20040;-59
2021/09/05 08:04:06;;;;;;;20.52;10.48;;;;;;;;;;4906238;28;20079;-59
2021/09/05 08:06:34;;;;;;;14.73;9.00;;;;;;;;;;4917829;28;20031;-59
2021/09/05 08:09:02;;;;;;;17.65;9.23;;;;;;;;;;4920077;28;20600;-59
2021/09/05 08:11:30;;;;;;;17.13;9.00;;;;;;;;;;4906425;29;20043;-58
2021/09/05 08:13:58;;;;;;;16.75;8.50;;;;;;;;;;4926053;28;20606;-59
2021/09/05 08:16:23;;;;;;;14.38;8.40;;;;;;;;;;4917647;28;20086;-59
2021/09/05 08:18:53;;;;;;;15.48;8.38;;;;;;;;;;4918910;28;20031;-58
2021/09/05 08:21:19;;;;;;;17.75;9.43;;;;;;;;;;4919070;28;20042;-60
2021/09/05 08:23:46;;;;;;;15.02;9.00;;;;;;;;;;4916901;28;20059;-59
2021/09/05 08:26:14;;;;;;;14.40;8.43;;;;;;;;;;4901970;29;20130;-59
2021/09/05 08:28:40;;;;;;;15.68;8.32;;;;;;;;;;4919376;28;20090;-60
2021/09/05 08:31:11;;;;;;;13.02;8.50;;;;;;;;;;4919787;28;20121;-60
2021/09/05 08:33:37;;;;;;;13.05;8.52;;;;;;;;;;4933583;28;20031;-59
2021/09/05 08:36:04;;;;;;;14.85;8.85;;;;;;;;;;4908735;28;20023;-61
2021/09/05 08:38:30;;;;;;;15.30;9.10;;;;;;;;;;4917137;28;20055;-60
2021/09/05 08:41:01;;;;;;;12.63;8.15;;;;;;;;;;4918082;28;20704;-62
2021/09/05 08:43:29;;;;;;;15.07;8.38;;;;;;;;;;4916185;28;20171;-60
2021/09/05 08:46:00;;;;;;;13.05;8.15;;;;;;;;;;4908590;29;20060;-61
2021/09/05 08:48:27;;;;;;;11.90;7.68;;;;;;;;;;4915347;28;20043;-60
2021/09/05 08:50:54;;;;;;;13.85;8.05;;;;;;;;;;4919226;28;21735;-60
2021/09/05 08:53:22;;;;;;;11.68;7.78;;;;;;;;;;4909695;29;20046;-60
2021/09/05 08:55:50;;;;;;;13.40;8.63;;;;;;;;;;4916206;28;20035;-60
2021/09/05 08:58:18;;;;;;;10.98;7.15;;;;;;;;;;4915815;28;20036;-61
2021/09/05 09:00:44;;;;;;;11.52;6.75;;;;;;;;;;4916934;28;20123;-60
2021/09/05 09:03:17;;;;;;;13.88;7.25;;;;;;;;;;4900298;28;20147;-60
2021/09/05 09:05:46;;;;;;;13.13;7.35;;;;;;;;;;4932581;28;20043;-61
2021/09/05 09:08:17;;;;;;;13.45;7.03;;;;;;;;;;4915418;28;20126;-61
2021/09/05 09:11:03;;;;;;;12.98;7.18;;;;;;;;;;4918719;28;20047;-61
2021/09/05 09:13:32;;;;;;;10.15;6.18;;;;;;;;;;4914211;28;21136;-62
2021/09/05 09:16:05;;;;;;;10.50;6.40;;;;;;;;;;4902567;29;20027;-62
2021/09/05 09:18:33;;;;;;;8.63;6.10;;;;;;;;;;4904593;28;20035;-61
2021/09/05 09:21:04;;;;;;;10.55;6.18;;;;;;;;;;4917628;28;20027;-62
2021/09/05 09:23:31;;;;;;;9.65;5.78;;;;;;;;;;4918265;28;20031;-62
2021/09/05 09:26:06;;;;;;;10.00;5.80;;;;;;;;;;4931085;28;20034;-61
2021/09/05 09:28:32;;;;;;;8.35;5.78;;;;;;;;;;4921673;28;20040;-62
2021/09/05 09:30:58;;;;;;;8.88;5.90;;;;;;;;;;4918589;28;21850;-62
2021/09/05 09:33:26;;;;;;;8.82;5.40;;;;;;;;;;4917259;28;20628;-62
2021/09/05 09:35:54;;;;;;;8.95;5.68;;;;;;;;;;4914952;28;21996;-62
2021/09/05 09:38:26;;;;;;;9.98;5.43;;;;;;;;;;4917761;28;20100;-61
2021/09/05 09:41:09;;;;;;;9.35;6.35;;;;;;;;;;4916496;28;20036;-62
2021/09/05 09:43:46;;;;;;;6.93;4.63;;;;;;;;;;4919926;28;20778;-64
2021/09/05 09:46:13;;;;;;;7.10;5.13;;;;;;;;;;4907035;28;20125;-60
2021/09/05 09:48:43;;;;;;;10.45;6.10;;;;;;;;;;4920910;28;20130;-61
2021/09/05 09:51:11;;;;;;;11.10;5.80;;;;;;;;;;4934151;28;20043;-62
2021/09/05 09:53:40;;;;;;;8.10;5.55;;;;;;;;;;4920299;28;20115;-62
2021/09/05 09:56:06;;;;;;;10.27;4.97;;;;;;;;;;4927672;28;21138;-62
2021/09/05 09:58:36;;;;;;;12.70;6.03;;;;;;;;;;4919243;28;20028;-62
2021/09/05 10:01:03;;;;;;;12.63;6.30;;;;;;;;;;4918469;28;20063;-62
2021/09/05 10:03:30;;;;;;;7.55;5.55;;;;;;;;;;4933558;28;20059;-62
2021/09/05 10:05:56;;;;;;;10.30;4.88;;;;;;;;;;4918855;28;20028;-64
2021/09/05 10:08:24;;;;;;;9.38;5.55;;;;;;;;;;4920692;28;20031;-62
2021/09/05 10:10:50;;;;;;;7.82;5.30;;;;;;;;;;4905114;28;20070;-62
2021/09/05 10:13:17;;;;;;;7.32;5.25;;;;;;;;;;4919751;28;20070;-61
2021/09/05 10:15:45;;;;;;;8.40;5.38;;;;;;;;;;4919861;28;20020;-61
2021/09/05 10:18:11;;;;;;;8.10;5.75;;;;;;;;;;4903493;28;20046;-62
2021/09/05 10:20:42;;;;;;;15.68;6.10;;;;;;;;;;4918636;28;20352;-62
2021/09/05 10:23:10;;;;;;;8.02;5.70;;;;;;;;;;4909692;29;20059;-61
2021/09/05 10:25:38;;;;;;;9.38;5.45;;;;;;;;;;4920485;28;21707;-61
2021/09/05 10:28:10;;;;;;;7.65;5.10;;;;;;;;;;4919917;28;22000;-61
2021/09/05 10:30:36;;;;;;;7.13;5.07;;;;;;;;;;4926316;28;20656;-62
2021/09/05 10:33:04;;;;;;;11.57;6.35;;;;;;;;;;4890270;28;20836;-61
2021/09/05 10:35:46;;;;;;;6.85;5.13;;;;;;;;;;4919109;28;20031;-62
2021/09/05 10:38:14;;;;;;;7.45;5.35;;;;;;;;;;4919129;28;20035;-62
2021/09/05 10:40:46;;;;;;;9.50;5.43;;;;;;;;;;4920611;28;20542;-62
2021/09/05 10:43:15;;;;;;;9.70;5.70;;;;;;;;;;4908822;28;20035;-61
2021/09/05 10:45:47;;;;;;;7.60;5.10;;;;;;;;;;4933843;28;22131;-61
2021/09/05 10:48:31;;;;;;;9.90;5.28;;;;;;;;;;4927257;28;20135;-62
2021/09/05 10:51:10;;;;;;;8.68;5.70;;;;;;;;;;4919055;28;20239;-62
2021/09/05 10:53:37;;;;;;;9.80;5.50;;;;;;;;;;4920703;28;21624;-62
2021/09/05 10:56:06;;;;;;;11.43;5.60;;;;;;;;;;4924275;28;20035;-61
2021/09/05 10:58:36;;;;;;;9.13;5.35;;;;;;;;;;4918676;28;20027;-61
2021/09/05 11:01:24;;;;;;;10.23;5.05;;;;;;;;;;4922381;28;20115;-62
2021/09/05 11:04:11;;;;;;;9.07;5.60;;;;;;;;;;4912612;28;20051;-62
2021/09/05 11:06:44;;;;;;;10.13;5.68;;;;;;;;;;4920259;28;20042;-62
2021/09/05 11:09:24;;;;;;;6.47;5.30;;;;;;;;;;4927192;28;20039;-62
2021/09/05 11:12:01;;;;;;;8.18;4.88;;;;;;;;;;4901007;28;20039;-62
2021/09/05 11:14:48;;;;;;;10.75;5.47;;;;;;;;;;4921147;28;20039;-62
2021/09/05 11:17:15;;;;;;;7.30;5.13;;;;;;;;;;4918774;28;20227;-62
2021/09/05 11:19:52;;;;;;;8.15;5.40;;;;;;;;;;4918925;28;20097;-62
2021/09/05 11:22:19;;;;;;;8.02;5.53;;;;;;;;;;4919100;28;20059;-62
2021/09/05 11:24:45;;;;;;;10.10;5.10;;;;;;;;;;4924715;28;20122;-62
2021/09/05 11:27:12;;;;;;;8.45;6.13;;;;;;;;;;4925577;28;20027;-62
2021/09/05 11:29:42;;;;;;;10.98;5.38;;;;;;;;;;4923865;28;20129;-62
2021/09/05 11:32:17;;;;;;;8.75;5.82;;;;;;;;;;4917964;28;20119;-62
2021/09/05 11:34:51;;;;;;;7.43;5.05;;;;;;;;;;4921033;28;20081;-63
2021/09/05 11:37:27;;;;;;;7.88;5.55;;;;;;;;;;4920197;28;20046;-62
2021/09/05 11:39:55;;;;;;;9.27;5.78;;;;;;;;;;4920482;28;20142;-62
2021/09/05 11:42:20;;;;;;;9.68;5.85;;;;;;;;;;4922000;28;20099;-63
2021/09/05 11:44:46;;;;;;;9.32;5.32;;;;;;;;;;4921215;28;21466;-63
2021/09/05 11:47:16;;;;;;;10.77;5.85;;;;;;;;;;4908256;28;20162;-63
2021/09/05 11:49:52;;;;;;;7.57;4.90;;;;;;;;;;4921296;28;20042;-64
2021/09/05 11:52:30;;;;;;;8.63;5.10;;;;;;;;;;4916159;28;20027;-61
2021/09/05 11:54:58;;;;;;;9.10;5.85;;;;;;;;;;4934253;28;20035;-63
2021/09/05 11:57:29;;;;;;;9.05;5.70;;;;;;;;;;4926031;28;20779;-61
2021/09/05 11:59:57;;;;;;;6.72;4.55;;;;;;;;;;4917400;28;20039;-62
2021/09/05 12:02:30;;;;;;;10.23;5.63;;;;;;;;;;4908582;29;20059;-62
2021/09/05 12:04:58;;;;;;;8.32;4.45;;;;;;;;;;4915967;28;20044;-63
2021/09/05 12:07:25;;;;;;;8.05;4.55;;;;;;;;;;4917443;28;20023;-62
2021/09/05 12:10:19;;;;;;;14.90;5.03;;;;;;;;;;4920268;28;20660;-62
2021/09/05 12:12:56;;;;;;;6.60;4.40;;;;;;;;;;4907960;28;20054;-62
2021/09/05 12:15:25;;;;;;;8.00;4.70;;;;;;;;;;4920369;28;20130;-62
2021/09/05 12:17:51;;;;;;;6.50;4.38;;;;;;;;;;4916867;28;20261;-62
2021/09/05 12:20:19;;;;;;;6.13;4.20;;;;;;;;;;4919403;28;20083;-62
2021/09/05 12:22:50;;;;;;;8.05;5.25;;;;;;;;;;4933229;28;20027;-61
2021/09/05 12:25:19;;;;;;;7.57;3.88;;;;;;;;;;4933890;28;20035;-62
2021/09/05 12:27:53;;;;;;;10.50;4.05;;;;;;;;;;4918896;28;20027;-62
2021/09/05 12:30:23;;;;;;;5.20;3.90;;;;;;;;;;4901113;28;20107;-63
2021/09/05 12:33:09;;;;;;;7.97;4.13;;;;;;;;;;4931982;28;20460;-61
2021/09/05 12:35:36;;;;;;;5.30;3.60;;;;;;;;;;4917513;28;20048;-62
2021/09/05 12:38:02;;;;;;;4.95;3.60;;;;;;;;;;4932492;28;20118;-61
2021/09/05 12:40:32;;;;;;;5.30;3.35;;;;;;;;;;4919497;28;20049;-62
2021/09/05 12:43:00;;;;;;;8.68;4.30;;;;;;;;;;4916567;28;20035;-62
2021/09/05 12:45:28;;;;;;;4.82;3.08;;;;;;;;;;4908773;28;20073;-62
2021/09/05 12:48:09;;;;;;;6.93;3.15;;;;;;;;;;4917052;28;20125;-62
2021/09/05 12:50:37;;;;;;;5.07;3.20;;;;;;;;;;4933085;28;20031;-63
2021/09/05 12:53:13;;;;;;;6.15;3.10;;;;;;;;;;4918774;28;20834;-62
2021/09/05 12:55:39;;;;;;;6.95;3.28;;;;;;;;;;4915928;28;20411;-62
2021/09/05 12:58:07;;;;;;;5.75;3.13;;;;;;;;;;4905553;29;20059;-63
2021/09/05 13:00:33;;;;;;;4.78;2.83;;;;;;;;;;4919570;28;20404;-62
2021/09/05 13:03:00;;;;;;;7.88;3.58;;;;;;;;;;4901491;29;20042;-61
2021/09/05 13:05:25;;;;;;;6.05;3.50;;;;;;;;;;4965077;23;20488;-90
2021/09/05 13:08:01;;;;;;;4.85;3.08;;;;;;;;;;4952003;28;20023;-89
2021/09/05 13:10:27;;;;;;;8.15;3.33;;;;;;;;;;4987099;28;20036;-89
2021/09/05 13:12:53;;;;;;;8.75;3.25;;;;;;;;;;4972993;28;20043;-87
2021/09/05 13:15:22;;;;;;;8.18;3.22;;;;;;;;;;4993975;28;20100;-91
2021/09/05 13:17:47;;;;;;;5.53;2.90;;;;;;;;;;4994868;28;20066;-87
2021/09/05 13:20:14;;;;;;;5.30;2.60;;;;;;;;;;4974604;28;20051;-89
2021/09/05 13:22:44;;;;;;;4.40;2.90;;;;;;;;;;4948167;29;20031;-89
2021/09/05 13:25:09;;;;;;;5.28;3.15;;;;;;;;;;4972842;28;20047;-91
2021/09/05 13:27:36;;;;;;;6.72;2.70;;;;;;;;;;4988373;28;20059;-89
2021/09/05 13:30:11;;;;;;;5.18;3.00;;;;;;;;;;4985749;28;20027;-91
2021/09/05 13:32:37;;;;;;;6.20;3.05;;;;;;;;;;4954310;29;20027;-90
2021/09/05 13:35:08;;;;;;;5.88;3.33;;;;;;;;;;4957364;28;20409;-88
2021/09/05 13:37:35;;;;;;;4.30;2.88;;;;;;;;;;4955026;28;20031;-89
2021/09/05 13:40:01;;;;;;;4.07;2.92;;;;;;;;;;4957991;29;20089;-86
2021/09/05 13:42:29;;;;;;;5.40;3.00;;;;;;;;;;4987303;28;20027;-88
2021/09/05 13:44:58;;;;;;;7.32;2.95;;;;;;;;;;4974083;28;20034;-88
2021/09/05 13:47:24;;;;;;;5.38;2.70;;;;;;;;;;4969840;28;20118;-86
2021/09/05 13:49:56;;;;;;;3.53;2.58;;;;;;;;;;4975917;28;20055;-92
2021/09/05 13:52:21;;;;;;;2.97;2.67;;;;;;;;;;4984408;28;20203;-87
2021/09/05 13:54:47;;;;;;;4.90;2.45;;;;;;;;;;4954610;28;20153;-89
2021/09/05 13:57:20;;;;;;;4.53;3.03;;;;;;;;;;4956465;28;20390;-89
2021/09/05 13:59:45;;;;;;;6.65;2.75;;;;;;;;;;4941168;29;20042;-89
2021/09/05 14:02:13;;;;;;;4.20;2.33;;;;;;;;;;4961955;28;20469;-88
2021/09/05 14:04:47;;;;;;;4.53;2.20;;;;;;;;;;4969080;28;20318;-91
2021/09/05 14:07:14;;;;;;;4.28;2.28;;;;;;;;;;4957139;28;20027;-90
2021/09/05 14:09:39;;;;;;;4.50;2.00;;;;;;;;;;4939943;29;20106;-89
2021/09/05 14:12:08;;;;;;;4.45;2.20;;;;;;;;;;4969856;28;20023;-90
2021/09/05 14:14:33;;;;;;;4.78;2.60;;;;;;;;;;4955269;29;20617;-86
2021/09/05 14:16:59;;;;;;;5.72;2.67;;;;;;;;;;4985206;28;20035;-89
2021/09/05 14:19:33;;;;;;;;;;;;;;;;;;4985059;28;20023;-90
2021/09/05 14:22:01;;;;;;;4.00;2.05;;;;;;;;;;4953907;29;20005;-89
2021/09/05 14:24:29;;;;;;;2.92;2.15;;;;;;;;;;4972381;28;20047;-90
2021/09/05 14:27:01;;;;;;;3.92;2.30;;;;;;;;;;4954374;28;20043;-92
2021/09/05 14:29:32;;;;;;;2.47;1.77;;;;;;;;;;4972426;28;20115;-92
2021/09/05 14:34:58;;;;;;;4.45;2.15;;;;;;;;;;4958952;29;20039;-93
2021/09/05 14:53:59;;;;;;;4.13;2.00;;;;;;;;;;4969324;28;20058;-85
2021/09/05 14:57:29;;;;;;;3.17;1.83;;;;;;;;;;4976685;28;20035;-90
2021/09/05 14:59:57;;;;;;;3.90;2.25;;;;;;;;;;4965769;28;20027;-91